createdAt,value
2023-05-03T00:00:21.090Z,7.35
2023-05-03T00:02:51.208Z,7.29
2023-05-03T00:05:19.011Z,7.06
2023-05-03T00:07:47.314Z,7.25
2023-05-03T00:10:16.413Z,7.55
2023-05-03T00:12:44.540Z,7.48
2023-05-03T00:15:12.474Z,7.10
2023-05-03T00:17:40.286Z,7.25
2023-05-03T00:20:10.121Z,7.13
2023-05-03T00:22:39.036Z,7.34
2023-05-03T00:25:07.715Z,7.69
2023-05-03T00:27:35.484Z,7.87
2023-05-03T00:30:03.514Z,7.79
2023-05-03T00:32:31.496Z,7.67
2023-05-03T00:34:59.305Z,7.74
2023-05-03T00:37:29.790Z,7.92
2023-05-03T00:39:57.576Z,7.77
2023-05-03T00:42:25.319Z,7.88
2023-05-03T00:44:54.660Z,7.40
2023-05-03T00:47:23.589Z,7.06
2023-05-03T00:49:51.401Z,7.11
2023-05-03T00:52:19.154Z,7.22
2023-05-03T00:54:48.231Z,7.39
2023-05-03T00:57:16.051Z,7.14
2023-05-03T00:59:44.013Z,7.10
2023-05-03T01:02:11.792Z,6.89
2023-05-03T01:04:42.398Z,7.17
2023-05-03T01:07:15.019Z,7.16
2023-05-03T01:09:45.513Z,7.68
2023-05-03T01:12:20.480Z,7.40
2023-05-03T01:14:52.489Z,7.04
2023-05-03T01:17:21.262Z,6.89
2023-05-03T01:19:51.527Z,6.92
2023-05-03T01:22:23.496Z,6.70
2023-05-03T01:24:53.667Z,6.91
2023-05-03T01:27:22.721Z,7.35
2023-05-03T01:29:51.256Z,7.57
2023-05-03T01:32:21.798Z,6.91
2023-05-03T01:34:52.403Z,7.08
2023-05-03T01:37:20.131Z,6.83
2023-05-03T01:39:51.502Z,7.13
2023-05-03T01:42:19.276Z,6.71
2023-05-03T01:44:49.617Z,6.48
2023-05-03T01:47:17.390Z,6.92
2023-05-03T01:49:45.148Z,7.05
2023-05-03T01:52:12.902Z,6.65
2023-05-03T01:54:41.002Z,6.64
2023-05-03T01:57:08.789Z,6.99
2023-05-03T01:59:36.800Z,6.38
2023-05-03T02:02:05.913Z,6.33
2023-05-03T02:04:34.439Z,6.35
2023-05-03T02:07:02.164Z,6.18
2023-05-03T02:09:29.865Z,6.12
2023-05-03T02:11:57.632Z,6.03
2023-05-03T02:14:25.422Z,6.20
2023-05-03T02:16:55.842Z,6.42
2023-05-03T02:19:25.069Z,6.37
2023-05-03T02:21:52.794Z,6.74
2023-05-03T02:24:21.131Z,6.96
2023-05-03T02:26:49.871Z,6.87
2023-05-03T02:29:17.744Z,6.05
2023-05-03T02:31:46.497Z,5.67
2023-05-03T02:34:14.245Z,5.50
2023-05-03T02:36:43.326Z,5.69
2023-05-03T02:39:11.084Z,5.60
2023-05-03T02:41:38.837Z,5.52
2023-05-03T02:44:06.620Z,5.65
2023-05-03T02:46:34.395Z,5.57
2023-05-03T02:49:02.228Z,5.63
2023-05-03T02:51:30.116Z,5.73
2023-05-03T02:53:59.711Z,5.90
2023-05-03T02:56:27.614Z,5.78
2023-05-03T02:58:55.625Z,6.08
2023-05-03T03:01:24.162Z,5.75
2023-05-03T03:03:52.108Z,5.82
2023-05-03T03:06:20.111Z,5.96
2023-05-03T03:08:48.637Z,6.33
2023-05-03T03:11:17.729Z,6.75
2023-05-03T03:13:45.594Z,5.99
2023-05-03T03:16:13.747Z,6.35
2023-05-03T03:18:41.641Z,5.79
2023-05-03T03:21:10.211Z,6.15
2023-05-03T03:23:38.310Z,6.14
2023-05-03T03:26:06.320Z,5.99
2023-05-03T03:28:36.160Z,6.04
2023-05-03T03:31:09.282Z,5.95
2023-05-03T03:33:37.072Z,5.91
2023-05-03T03:36:11.236Z,6.23
2023-05-03T03:38:42.400Z,6.39
2023-05-03T03:41:11.859Z,6.22
2023-05-03T03:43:41.369Z,6.00
2023-05-03T03:46:15.214Z,5.72
2023-05-03T03:48:43.552Z,5.52
2023-05-03T03:51:12.143Z,5.42
2023-05-03T03:53:45.972Z,5.27
2023-05-03T03:56:14.136Z,5.30
2023-05-03T03:58:44.317Z,5.35
2023-05-03T04:01:13.286Z,5.39
2023-05-03T04:03:41.093Z,5.58
2023-05-03T04:06:09.060Z,5.56
2023-05-03T04:08:37.611Z,5.67
2023-05-03T04:11:05.750Z,5.55
2023-05-03T04:13:36.735Z,5.89
2023-05-03T04:16:06.764Z,6.30
2023-05-03T04:18:36.310Z,6.47
2023-05-03T04:21:04.282Z,6.34
2023-05-03T04:23:32.123Z,6.01
2023-05-03T04:26:00.584Z,6.43
2023-05-03T04:28:29.882Z,6.73
2023-05-03T04:30:58.885Z,6.75
2023-05-03T04:33:30.138Z,6.83
2023-05-03T04:36:02.270Z,6.88
2023-05-03T04:38:30.209Z,6.71
2023-05-03T04:41:00.756Z,6.16
2023-05-03T04:43:29.798Z,5.93
2023-05-03T04:45:57.608Z,6.28
2023-05-03T04:48:27.836Z,6.48
2023-05-03T04:50:56.943Z,6.41
2023-05-03T04:53:25.013Z,6.86
2023-05-03T04:56:03.901Z,7.09
2023-05-03T04:58:34.348Z,7.03
2023-05-03T05:01:03.457Z,7.00
2023-05-03T05:03:32.520Z,7.27
2023-05-03T05:06:07.017Z,7.29
2023-05-03T05:08:35.374Z,7.15
2023-05-03T05:11:06.559Z,7.01
2023-05-03T05:13:35.238Z,6.20
2023-05-03T05:16:03.074Z,6.39
2023-05-03T05:18:30.881Z,6.02
2023-05-03T05:21:01.487Z,6.05
2023-05-03T05:23:31.513Z,6.22
2023-05-03T05:26:00.674Z,6.08
2023-05-03T05:28:32.363Z,6.28
2023-05-03T05:31:01.059Z,6.19
2023-05-03T05:33:29.824Z,6.32
2023-05-03T05:36:00.890Z,6.39
2023-05-03T05:38:29.031Z,6.26
2023-05-03T05:41:05.277Z,6.74
2023-05-03T05:43:34.293Z,6.59
2023-05-03T05:46:02.214Z,6.36
2023-05-03T05:48:30.691Z,6.43
2023-05-03T05:50:59.295Z,6.36
2023-05-03T05:53:27.242Z,6.57
2023-05-03T05:56:00.150Z,6.43
2023-05-03T05:58:31.693Z,6.66
2023-05-03T06:01:01.337Z,6.59
2023-05-03T06:03:31.720Z,6.67
2023-05-03T06:06:01.740Z,6.80
2023-05-03T06:08:29.584Z,6.62
2023-05-03T06:10:57.629Z,6.64
2023-05-03T06:13:27.619Z,6.74
2023-05-03T06:15:57.760Z,6.85
2023-05-03T06:18:25.757Z,7.10
2023-05-03T06:20:53.496Z,6.76
2023-05-03T06:23:22.209Z,6.79
2023-05-03T06:25:51.446Z,6.80
2023-05-03T06:28:19.358Z,7.04
2023-05-03T06:30:50.091Z,7.10
2023-05-03T06:33:19.465Z,6.94
2023-05-03T06:35:53.764Z,7.40
2023-05-03T06:38:21.568Z,7.47
2023-05-03T06:40:50.449Z,7.33
2023-05-03T06:43:18.226Z,7.16
2023-05-03T06:45:52.350Z,7.22
2023-05-03T06:48:21.829Z,7.52
2023-05-03T06:50:50.305Z,7.43
2023-05-03T06:53:18.097Z,7.67
2023-05-03T06:55:46.568Z,7.90
2023-05-03T06:58:14.734Z,7.65
2023-05-03T07:00:42.490Z,7.66
2023-05-03T07:03:10.473Z,8.03
2023-05-03T07:05:39.591Z,8.29
2023-05-03T07:08:07.434Z,8.40
2023-05-03T07:14:59.854Z,8.30
2023-05-03T07:17:27.618Z,8.16
2023-05-03T07:19:55.676Z,8.32
2023-05-03T07:22:25.630Z,8.67
2023-05-03T07:24:54.747Z,8.87
2023-05-03T07:27:22.736Z,8.93
2023-05-03T07:29:50.497Z,8.71
2023-05-03T07:32:18.266Z,8.75
2023-05-03T07:34:46.017Z,8.97
2023-05-03T07:37:13.727Z,8.68
2023-05-03T07:39:43.316Z,8.75
2023-05-03T07:42:11.063Z,8.81
2023-05-03T07:44:38.826Z,8.80
2023-05-03T07:47:06.556Z,9.29
2023-05-03T07:49:36.350Z,9.16
2023-05-03T07:52:04.212Z,9.02
2023-05-03T07:54:32.050Z,9.09
2023-05-03T07:57:03.883Z,9.63
2023-05-03T07:59:31.753Z,9.91
2023-05-03T08:02:01.687Z,9.25
2023-05-03T08:04:30.002Z,9.09
2023-05-03T08:06:57.960Z,10.14
2023-05-03T08:09:25.934Z,10.33
2023-05-03T08:11:53.721Z,10.26
2023-05-03T08:14:23.024Z,9.90
2023-05-03T08:16:51.426Z,9.99
2023-05-03T08:19:19.243Z,9.83
2023-05-03T08:21:48.232Z,9.87
2023-05-03T08:24:16.377Z,9.96
2023-05-03T08:26:45.000Z,9.20
2023-05-03T08:29:12.826Z,10.00
2023-05-03T08:31:42.178Z,10.36
2023-05-03T08:34:10.937Z,10.54
2023-05-03T08:36:39.275Z,10.26
2023-05-03T08:39:07.388Z,10.19
2023-05-03T08:41:35.197Z,10.68
2023-05-03T08:44:05.638Z,10.86
2023-05-03T08:46:37.158Z,10.49
2023-05-03T08:49:07.621Z,10.41
2023-05-03T08:51:36.735Z,10.22
2023-05-03T08:54:04.547Z,10.58
2023-05-03T08:56:34.549Z,10.01
2023-05-03T08:59:08.077Z,10.03
2023-05-03T09:01:36.833Z,10.11
2023-05-03T09:04:06.468Z,10.05
2023-05-03T09:06:35.179Z,10.07
2023-05-03T09:09:05.362Z,11.07
2023-05-03T09:11:33.881Z,10.28
2023-05-03T09:14:09.363Z,10.98
2023-05-03T09:16:37.174Z,11.31
2023-05-03T09:19:09.505Z,11.00
2023-05-03T09:21:37.534Z,11.69
2023-05-03T09:24:13.670Z,10.96
2023-05-03T09:26:42.284Z,11.36
2023-05-03T09:29:10.079Z,11.89
2023-05-03T09:31:38.302Z,10.35
2023-05-03T09:34:25.227Z,10.88
2023-05-03T09:36:53.010Z,11.62
2023-05-03T09:39:20.888Z,11.85
2023-05-03T09:41:48.718Z,11.52
2023-05-03T09:44:17.237Z,11.22
2023-05-03T09:47:03.443Z,11.20
2023-05-03T09:49:33.303Z,11.07
2023-05-03T09:52:04.393Z,11.24
2023-05-03T09:54:32.327Z,11.69
2023-05-03T09:57:02.526Z,11.59
2023-05-03T09:59:30.445Z,11.51
2023-05-03T10:01:59.907Z,10.81
2023-05-03T10:04:28.305Z,10.89
2023-05-03T10:07:02.210Z,10.62
2023-05-03T10:09:32.423Z,11.61
2023-05-03T10:12:02.215Z,10.98
2023-05-03T10:14:29.949Z,11.69
2023-05-03T10:17:00.133Z,11.68
2023-05-03T10:19:30.390Z,11.41
2023-05-03T10:22:04.544Z,11.86
2023-05-03T10:24:32.390Z,12.41
2023-05-03T10:27:04.973Z,12.76
2023-05-03T10:29:54.169Z,12.03
2023-05-03T10:32:35.119Z,12.18
2023-05-03T10:35:05.911Z,12.60
2023-05-03T10:37:36.212Z,12.17
2023-05-03T10:40:09.825Z,12.15
2023-05-03T10:42:38.036Z,12.49
2023-05-03T10:45:11.089Z,12.15
2023-05-03T10:47:41.488Z,12.28
2023-05-03T10:50:28.618Z,12.60
2023-05-03T10:52:58.228Z,12.57
2023-05-03T10:55:28.114Z,11.88
2023-05-03T10:57:58.383Z,12.52
2023-05-03T11:00:32.157Z,13.04
2023-05-03T11:03:13.570Z,12.43
2023-05-03T11:05:41.700Z,12.86
2023-05-03T11:08:17.621Z,12.90
2023-05-03T11:10:45.259Z,13.57
2023-05-03T11:13:12.961Z,12.53
2023-05-03T11:15:40.727Z,12.29
2023-05-03T11:18:08.524Z,13.22
2023-05-03T11:20:36.218Z,12.83
2023-05-03T11:23:07.105Z,13.33
2023-05-03T11:25:36.135Z,13.22
2023-05-03T11:28:07.202Z,13.20
2023-05-03T11:30:35.283Z,12.96
2023-05-03T11:33:04.668Z,12.74
2023-05-03T11:35:33.087Z,13.14
2023-05-03T11:38:00.730Z,13.06
2023-05-03T11:40:31.586Z,13.12
2023-05-03T11:43:00.909Z,13.31
2023-05-03T11:45:30.456Z,13.14
2023-05-03T11:47:58.298Z,13.56
2023-05-03T11:50:30.994Z,13.53
2023-05-03T11:52:58.628Z,13.19
2023-05-03T11:55:28.410Z,13.61
2023-05-03T11:57:57.600Z,12.82
2023-05-03T12:00:27.559Z,12.63
2023-05-03T12:02:55.287Z,13.16
2023-05-03T12:05:23.495Z,13.74
2023-05-03T12:07:53.139Z,13.61
2023-05-03T12:10:25.793Z,13.66
2023-05-03T12:12:56.749Z,13.49
2023-05-03T12:15:30.377Z,13.28
2023-05-03T12:18:00.205Z,14.03
2023-05-03T12:23:04.207Z,13.74
2023-05-03T12:25:33.814Z,14.09
2023-05-03T12:30:35.649Z,13.50
2023-05-03T12:33:07.922Z,13.91
2023-05-03T12:35:40.188Z,13.70
2023-05-03T12:38:09.715Z,13.54
2023-05-03T12:40:39.125Z,13.48
2023-05-03T12:43:07.226Z,13.57
2023-05-03T12:45:39.978Z,14.00
2023-05-03T12:48:08.464Z,14.13
2023-05-03T12:50:38.639Z,13.53
2023-05-03T12:53:10.070Z,14.11
2023-05-03T12:55:43.417Z,14.10
2023-05-03T13:07:13.174Z,14.27
2023-05-03T13:12:30.879Z,14.10
2023-05-03T13:14:58.979Z,13.81
2023-05-03T13:17:26.787Z,14.09
2023-05-03T13:19:55.755Z,14.10
2023-05-03T13:22:23.296Z,14.32
2023-05-03T13:24:50.973Z,14.50
2023-05-03T13:27:18.892Z,14.20
2023-05-03T13:29:49.144Z,13.97
2023-05-03T13:32:17.390Z,13.90
2023-05-03T13:34:45.066Z,13.91
2023-05-03T13:37:18.364Z,13.79
2023-05-03T13:39:46.553Z,13.76
2023-05-03T13:42:14.347Z,13.44
2023-05-03T13:44:42.507Z,13.72
2023-05-03T13:47:10.017Z,13.31
2023-05-03T13:49:37.499Z,13.42
2023-05-03T13:52:05.798Z,14.07
2023-05-03T13:54:34.567Z,14.07
2023-05-03T13:57:02.190Z,14.13
2023-05-03T13:59:38.866Z,13.95
2023-05-03T14:02:06.496Z,13.26
2023-05-03T14:04:34.090Z,13.87
2023-05-03T14:07:03.371Z,13.95
2023-05-03T14:09:30.967Z,14.12
2023-05-03T14:11:59.899Z,13.85
2023-05-03T14:14:27.534Z,14.19
2023-05-03T14:16:55.099Z,13.48
2023-05-03T14:19:22.722Z,14.08
2023-05-03T14:21:51.450Z,13.66
2023-05-03T14:24:19.798Z,13.77
2023-05-03T14:26:48.290Z,13.93
2023-05-03T14:29:17.176Z,13.87
2023-05-03T14:31:44.850Z,14.12
2023-05-03T14:34:12.401Z,13.89
2023-05-03T14:36:43.847Z,13.55
2023-05-03T14:39:14.385Z,13.54
2023-05-03T14:41:45.307Z,13.82
2023-05-03T14:44:12.940Z,13.50
2023-05-03T14:46:42.593Z,13.85
2023-05-03T14:49:10.203Z,13.37
2023-05-03T14:51:37.767Z,13.55
2023-05-03T14:54:05.415Z,13.84
2023-05-03T14:56:33.046Z,13.61
2023-05-03T14:59:00.706Z,14.00
2023-05-03T15:01:28.423Z,13.76
2023-05-03T15:03:57.592Z,13.92
2023-05-03T15:07:06.464Z,14.26
2023-05-03T15:09:34.350Z,13.77
2023-05-03T15:12:03.866Z,13.74
2023-05-03T15:14:31.405Z,13.95
2023-05-03T15:16:58.952Z,13.97
2023-05-03T15:19:28.122Z,13.58
2023-05-03T15:21:55.588Z,13.38
2023-05-03T15:24:23.160Z,13.78
2023-05-03T15:26:51.608Z,13.55
2023-05-03T15:29:19.231Z,13.60
2023-05-03T15:31:46.951Z,13.86
2023-05-03T15:34:14.493Z,13.81
2023-05-03T15:36:43.365Z,13.54
2023-05-03T15:39:10.862Z,13.43
2023-05-03T15:41:38.477Z,13.56
2023-05-03T15:44:08.003Z,13.43
2023-05-03T15:46:36.824Z,13.62
2023-05-03T15:49:04.977Z,13.64
2023-05-03T15:51:32.673Z,13.68
2023-05-03T15:54:01.669Z,13.60
2023-05-03T15:56:29.270Z,13.81
2023-05-03T15:58:56.842Z,13.67
2023-05-03T16:01:25.106Z,13.58
2023-05-03T16:03:52.742Z,13.77
2023-05-03T16:06:20.277Z,13.42
2023-05-03T16:08:47.831Z,13.51
2023-05-03T16:11:16.733Z,13.53
2023-05-03T16:13:44.427Z,13.57
2023-05-03T16:16:12.425Z,13.88
2023-05-03T16:18:40.081Z,13.77
2023-05-03T16:21:07.635Z,13.48
2023-05-03T16:23:38.301Z,13.59
2023-05-03T16:26:12.360Z,13.61
2023-05-03T16:28:44.063Z,13.41
2023-05-03T16:31:11.846Z,13.52
2023-05-03T16:33:42.530Z,13.42
2023-05-03T16:36:13.535Z,13.29
2023-05-03T16:38:41.140Z,13.13
2023-05-03T16:41:08.744Z,13.20
2023-05-03T16:43:38.259Z,13.10
2023-05-03T16:46:09.544Z,13.21
2023-05-03T16:48:37.195Z,13.07
2023-05-03T16:51:07.824Z,12.92
2023-05-03T16:53:35.409Z,12.88
2023-05-03T16:56:07.986Z,12.71
2023-05-03T16:58:35.680Z,12.56
2023-05-03T17:01:03.280Z,12.57
2023-05-03T17:03:32.433Z,12.50
2023-05-03T17:06:03.747Z,12.62
2023-05-03T17:08:31.676Z,12.73
2023-05-03T17:10:59.448Z,12.55
2023-05-03T17:13:27.744Z,12.46
2023-05-03T17:15:57.346Z,12.40
2023-05-03T17:18:24.909Z,12.33
2023-05-03T17:20:53.951Z,12.44
2023-05-03T17:23:21.470Z,12.30
2023-05-03T17:25:49.111Z,12.21
2023-05-03T17:28:16.864Z,12.08
2023-05-03T17:30:44.770Z,11.98
2023-05-03T17:33:12.412Z,12.03
2023-05-03T17:35:39.971Z,11.90
2023-05-03T17:38:08.982Z,11.87
2023-05-03T17:40:38.481Z,11.73
2023-05-03T17:43:06.206Z,11.74
2023-05-03T17:45:33.826Z,11.64
2023-05-03T17:48:01.654Z,11.55
2023-05-03T17:50:29.253Z,11.54
2023-05-03T17:52:57.547Z,11.35
2023-05-03T17:55:26.430Z,11.28
2023-05-03T17:57:54.001Z,11.18
2023-05-03T18:00:22.589Z,11.18
2023-05-03T18:02:50.218Z,11.04
2023-05-03T18:05:17.839Z,10.74
2023-05-03T18:07:45.564Z,10.59
2023-05-03T18:10:16.301Z,10.49
2023-05-03T18:12:46.050Z,10.28
2023-05-03T18:15:15.469Z,10.27
2023-05-03T18:17:43.639Z,10.22
2023-05-03T18:20:12.098Z,10.09
2023-05-03T18:22:39.705Z,10.10
2023-05-03T18:25:07.768Z,9.92
2023-05-03T18:27:36.816Z,9.84
2023-05-03T18:30:07.215Z,9.75
2023-05-03T18:32:35.129Z,9.62
2023-05-03T18:35:03.697Z,9.25
2023-05-03T18:37:32.293Z,9.29
2023-05-03T18:40:00.149Z,8.98
2023-05-03T18:42:27.838Z,8.94
2023-05-03T18:44:55.421Z,8.83
2023-05-03T18:47:29.889Z,8.78
2023-05-03T18:49:57.876Z,8.77
2023-05-03T18:52:25.890Z,8.68
2023-05-03T18:54:56.064Z,8.43
2023-05-03T18:57:24.738Z,8.42
2023-05-03T19:00:08.002Z,8.59
2023-05-03T19:02:38.209Z,8.35
2023-05-03T19:05:11.570Z,8.23
2023-05-03T19:07:42.972Z,8.21
2023-05-03T19:10:10.937Z,8.48
2023-05-03T19:12:38.564Z,8.29
2023-05-03T19:15:06.383Z,8.42
2023-05-03T19:17:34.053Z,8.43
2023-05-03T19:20:06.216Z,8.30
2023-05-03T19:22:35.048Z,8.69
2023-05-03T19:25:04.792Z,8.59
2023-05-03T19:27:32.833Z,8.95
2023-05-03T19:30:00.573Z,8.78
2023-05-03T19:32:28.297Z,8.98
2023-05-03T19:34:58.768Z,8.86
2023-05-03T19:37:27.808Z,8.39
2023-05-03T19:39:55.371Z,8.17
2023-05-03T19:42:38.974Z,7.81
2023-05-03T19:45:10.119Z,8.30
2023-05-03T19:47:37.898Z,7.88
2023-05-03T19:50:05.997Z,7.95
2023-05-03T19:52:35.311Z,8.19
2023-05-03T19:55:07.066Z,8.27
2023-05-03T19:57:34.638Z,8.26
2023-05-03T20:00:07.194Z,8.14
2023-05-03T20:02:36.668Z,7.97
2023-05-03T20:05:07.025Z,7.57
2023-05-03T20:07:36.743Z,8.20
2023-05-03T20:10:13.890Z,7.98
2023-05-03T20:12:41.623Z,7.72
2023-05-03T20:15:12.214Z,7.76
2023-05-03T20:17:39.873Z,7.60
2023-05-03T20:20:09.890Z,7.64
2023-05-03T20:22:39.440Z,7.41
2023-05-03T20:25:12.680Z,7.60
2023-05-03T20:27:40.251Z,7.48
2023-05-03T20:30:09.163Z,7.10
2023-05-03T20:32:37.315Z,6.55
2023-05-03T20:35:05.297Z,6.45
2023-05-03T20:37:33.236Z,6.12
2023-05-03T20:40:02.415Z,6.71
2023-05-03T20:42:31.495Z,6.36
2023-05-03T20:44:59.032Z,6.43
2023-05-03T20:47:27.746Z,6.67
2023-05-03T20:49:55.272Z,6.21
2023-05-03T20:52:22.973Z,6.24
2023-05-03T20:54:50.515Z,6.39
2023-05-03T20:57:20.968Z,6.53
2023-05-03T20:59:48.955Z,6.08
2023-05-03T21:02:16.735Z,5.84
2023-05-03T21:04:44.459Z,5.84
2023-05-03T21:07:12.101Z,5.76
2023-05-03T21:09:41.804Z,5.25
2023-05-03T21:12:09.680Z,5.43
2023-05-03T21:14:38.602Z,5.46
2023-05-03T21:17:09.905Z,5.95
2023-05-03T21:19:37.544Z,6.08
2023-05-03T21:22:05.109Z,5.80
2023-05-03T21:24:32.712Z,5.47
2023-05-03T21:27:00.285Z,5.33
2023-05-03T21:29:28.282Z,5.66
2023-05-03T21:31:57.404Z,5.98
2023-05-03T21:34:25.047Z,5.94
2023-05-03T21:36:53.087Z,5.92
2023-05-03T21:39:21.488Z,5.57
2023-05-03T21:41:49.171Z,5.20
2023-05-03T21:44:16.679Z,5.18
2023-05-03T21:46:44.302Z,5.40
2023-05-03T21:49:14.029Z,5.47
2023-05-03T21:51:41.681Z,5.58
2023-05-03T21:54:09.244Z,5.32
2023-05-03T21:56:36.830Z,5.16
2023-05-03T21:59:04.946Z,4.90
2023-05-03T22:01:32.601Z,4.72
2023-05-03T22:04:00.641Z,4.75
2023-05-03T22:06:31.161Z,5.07
2023-05-03T22:08:59.824Z,4.93
2023-05-03T22:11:27.475Z,4.96
2023-05-03T22:14:21.599Z,4.90
2023-05-03T22:16:49.424Z,4.80
2023-05-03T22:19:17.018Z,4.72
2023-05-03T22:21:46.338Z,4.60
2023-05-03T22:24:13.932Z,4.51
2023-05-03T22:26:41.480Z,4.28
2023-05-03T22:29:09.747Z,4.38
2023-05-03T22:31:37.354Z,4.60
2023-05-03T22:34:05.106Z,4.92
2023-05-03T22:36:32.765Z,4.43
2023-05-03T22:39:05.333Z,4.12
2023-05-03T22:41:33.078Z,4.42
2023-05-03T22:44:00.635Z,4.51
2023-05-03T22:46:29.243Z,4.98
2023-05-03T22:48:57.385Z,4.68
2023-05-03T22:51:25.079Z,4.68
2023-05-03T22:53:52.771Z,4.63
2023-05-03T22:56:21.706Z,4.41
2023-05-03T22:58:49.235Z,4.26
2023-05-03T23:01:16.862Z,4.24
2023-05-03T23:03:44.488Z,4.28
2023-05-03T23:06:12.182Z,4.36
2023-05-03T23:08:40.074Z,4.31
2023-05-03T23:11:07.741Z,4.30
2023-05-03T23:13:36.939Z,4.25
2023-05-03T23:16:04.604Z,4.11
2023-05-03T23:18:32.137Z,4.03
2023-05-03T23:20:59.954Z,3.94
2023-05-03T23:23:27.659Z,4.23
2023-05-03T23:25:55.217Z,4.58
2023-05-03T23:28:23.545Z,4.58
2023-05-03T23:30:52.821Z,4.45
2023-05-03T23:33:21.026Z,4.54
2023-05-03T23:35:49.542Z,4.63
2023-05-03T23:38:17.081Z,4.41
2023-05-03T23:40:44.647Z,4.49
2023-05-03T23:43:12.148Z,4.59
2023-05-03T23:45:39.679Z,4.41
2023-05-03T23:48:08.791Z,4.46
2023-05-03T23:50:36.323Z,4.50
2023-05-03T23:53:04.673Z,4.47
2023-05-03T23:55:32.190Z,4.66
2023-05-03T23:57:59.728Z,4.35
